createdAt,value
2023-05-12T00:01:17.729Z,101695.84
2023-05-12T00:03:44.592Z,101699.81
2023-05-12T00:06:12.454Z,101706.28
2023-05-12T00:08:39.027Z,101701.91
2023-05-12T00:11:05.686Z,101704.41
2023-05-12T00:13:32.451Z,101709.63
2023-05-12T00:15:59.432Z,101708.31
2023-05-12T00:18:28.337Z,101703.47
2023-05-12T00:20:55.256Z,101689.22
2023-05-12T00:23:22.757Z,101705.09
2023-05-12T00:25:50.088Z,101701.47
2023-05-12T00:28:17.978Z,101700.13
2023-05-12T00:30:44.715Z,101710.34
2023-05-12T00:33:11.554Z,101708.03
2023-05-12T00:35:38.179Z,101705.66
2023-05-12T00:38:05.097Z,101709.06
2023-05-12T00:40:31.694Z,101709.88
2023-05-12T00:42:58.369Z,101711.06
2023-05-12T00:45:25.041Z,101713.03
2023-05-12T00:47:52.471Z,101716.28
2023-05-12T00:50:19.359Z,101711.75
2023-05-12T00:52:48.401Z,101720.66
2023-05-12T00:55:15.100Z,101716.66
2023-05-12T00:57:43.323Z,101715.88
2023-05-12T01:00:10.779Z,101723.03
2023-05-12T01:02:37.653Z,101712.75
2023-05-12T01:05:04.977Z,101719.09
2023-05-12T01:07:34.987Z,101721.56
2023-05-12T01:10:01.674Z,101719.34
2023-05-12T01:12:28.583Z,101721.53
2023-05-12T01:14:57.069Z,101699.75
2023-05-12T01:17:35.650Z,101729.38
2023-05-12T01:20:06.148Z,101726.50
2023-05-12T01:22:34.191Z,101724.28
2023-05-12T01:25:07.684Z,101722.75
2023-05-12T01:27:34.827Z,101719.97
2023-05-12T01:30:04.081Z,101730.25
2023-05-12T01:32:30.931Z,101728.47
2023-05-12T01:34:57.778Z,101729.69
2023-05-12T01:37:27.449Z,101733.88
2023-05-12T01:39:54.710Z,101737.53
2023-05-12T01:42:21.597Z,101741.09
2023-05-12T01:44:48.249Z,101742.31
2023-05-12T01:47:15.959Z,101740.50
2023-05-12T01:49:42.966Z,101745.69
2023-05-12T01:52:09.542Z,101741.56
2023-05-12T01:54:36.240Z,101748.34
2023-05-12T01:57:03.080Z,101747.41
2023-05-12T01:59:30.120Z,101746.94
2023-05-12T02:01:56.913Z,101740.56
2023-05-12T02:04:23.563Z,101751.75
2023-05-12T02:06:50.171Z,101747.91
2023-05-12T02:09:16.817Z,101762.13
2023-05-12T02:11:43.436Z,101759.19
2023-05-12T02:14:10.048Z,101758.38
2023-05-12T02:16:36.767Z,101758.63
2023-05-12T02:19:04.263Z,101755.03
2023-05-12T02:21:31.428Z,101773.78
2023-05-12T02:23:58.086Z,101759.63
2023-05-12T02:26:24.772Z,101769.81
2023-05-12T02:28:51.401Z,101776.56
2023-05-12T02:31:18.083Z,101769.91
2023-05-12T02:33:44.916Z,101764.53
2023-05-12T02:36:11.643Z,101776.06
2023-05-12T02:38:39.989Z,101772.22
2023-05-12T02:41:07.058Z,101770.03
2023-05-12T02:43:34.690Z,101771.22
2023-05-12T02:46:01.520Z,101771.75
2023-05-12T02:48:28.251Z,101771.22
2023-05-12T02:50:55.038Z,101768.88
2023-05-12T02:53:21.789Z,101774.78
2023-05-12T02:55:48.630Z,101771.38
2023-05-12T02:58:15.791Z,101767.00
2023-05-12T03:00:42.433Z,101768.03
2023-05-12T03:03:09.254Z,101766.34
2023-05-12T03:05:35.969Z,101766.34
2023-05-12T03:08:02.525Z,101762.94
2023-05-12T03:10:29.319Z,101767.31
2023-05-12T03:12:55.923Z,101761.56
2023-05-12T03:15:22.530Z,101754.84
2023-05-12T03:17:49.206Z,101769.66
2023-05-12T03:20:15.838Z,101768.63
2023-05-12T03:22:42.508Z,101739.09
2023-05-12T03:25:10.582Z,101758.13
2023-05-12T03:27:37.747Z,101777.16
2023-05-12T03:30:07.922Z,101774.97
2023-05-12T03:32:34.728Z,101756.91
2023-05-12T03:35:01.369Z,101780.50
2023-05-12T03:37:27.946Z,101776.88
2023-05-12T03:39:56.305Z,101780.75
2023-05-12T03:42:24.156Z,101779.53
2023-05-12T03:44:53.633Z,101756.81
2023-05-12T03:47:20.383Z,101750.06
2023-05-12T03:49:47.124Z,101773.59
2023-05-12T03:52:14.138Z,101778.13
2023-05-12T03:54:41.048Z,101781.97
2023-05-12T03:57:08.257Z,101790.22
2023-05-12T03:59:34.986Z,101790.13
2023-05-12T04:02:01.942Z,101789.09
2023-05-12T04:04:28.554Z,101795.44
2023-05-12T04:06:55.199Z,101796.19
2023-05-12T04:09:21.740Z,101807.09
2023-05-12T04:11:48.314Z,101804.44
2023-05-12T04:14:14.961Z,101812.56
2023-05-12T04:16:42.338Z,101813.59
2023-05-12T04:19:09.099Z,101813.88
2023-05-12T04:21:35.898Z,101816.78
2023-05-12T04:24:02.540Z,101825.06
2023-05-12T04:26:29.319Z,101826.09
2023-05-12T04:28:56.185Z,101819.72
2023-05-12T04:31:24.207Z,101819.88
2023-05-12T04:33:51.923Z,101822.34
2023-05-12T04:36:18.691Z,101818.78
2023-05-12T04:38:47.667Z,101821.44
2023-05-12T04:41:14.474Z,101822.16
2023-05-12T04:46:14.977Z,101817.72
2023-05-12T04:48:43.203Z,101823.88
2023-05-12T04:51:11.346Z,101825.25
2023-05-12T04:53:39.959Z,101823.63
2023-05-12T04:56:06.840Z,101824.50
2023-05-12T04:58:36.628Z,101828.34
2023-05-12T05:01:03.468Z,101828.38
2023-05-12T05:03:36.162Z,101834.69
2023-05-12T05:06:06.403Z,101830.03
2023-05-12T05:08:34.340Z,101835.38
2023-05-12T05:11:01.234Z,101834.63
2023-05-12T05:13:28.974Z,101841.03
2023-05-12T05:15:56.128Z,101832.88
2023-05-12T05:18:24.671Z,101835.56
2023-05-12T05:20:57.695Z,101842.38
2023-05-12T05:23:26.032Z,101840.16
2023-05-12T05:25:54.985Z,101838.13
2023-05-12T05:28:24.239Z,101841.78
2023-05-12T05:30:51.241Z,101851.56
2023-05-12T05:33:20.411Z,101843.47
2023-05-12T05:35:48.522Z,101857.41
2023-05-12T05:38:15.048Z,101850.50
2023-05-12T05:40:52.949Z,101857.19
2023-05-12T05:43:21.048Z,101863.69
2023-05-12T05:45:50.350Z,101866.75
2023-05-12T05:48:18.730Z,101876.53
2023-05-12T05:50:46.108Z,101877.19
2023-05-12T05:53:13.315Z,101861.19
2023-05-12T05:55:40.522Z,101879.66
2023-05-12T05:58:07.800Z,101876.63
2023-05-12T06:00:36.682Z,101870.75
2023-05-12T06:03:04.573Z,101873.72
2023-05-12T06:05:31.813Z,101869.75
2023-05-12T06:07:59.506Z,101873.88
2023-05-12T06:10:26.695Z,101874.94
2023-05-12T06:12:53.469Z,101878.94
2023-05-12T06:15:21.266Z,101877.75
2023-05-12T06:17:48.646Z,101878.97
2023-05-12T06:20:15.661Z,101884.06
2023-05-12T06:22:42.444Z,101883.78
2023-05-12T06:25:11.806Z,101874.78
2023-05-12T06:27:39.524Z,101886.31
2023-05-12T06:30:09.603Z,101891.69
2023-05-12T06:32:36.409Z,101897.13
2023-05-12T06:35:05.657Z,101887.31
2023-05-12T06:37:32.380Z,101883.06
2023-05-12T06:39:58.946Z,101893.72
2023-05-12T06:42:29.263Z,101887.38
2023-05-12T06:44:56.018Z,101903.25
2023-05-12T06:47:22.721Z,101900.66
2023-05-12T06:49:51.157Z,101902.22
2023-05-12T06:52:17.920Z,101886.50
2023-05-12T06:54:44.539Z,101893.22
2023-05-12T06:57:13.956Z,101897.50
2023-05-12T06:59:41.015Z,101897.53
2023-05-12T07:02:08.690Z,101885.28
2023-05-12T07:04:36.205Z,101889.75
2023-05-12T07:07:03.100Z,101893.53
2023-05-12T07:09:29.737Z,101897.91
2023-05-12T07:11:57.415Z,101895.50
2023-05-12T07:14:24.790Z,101899.53
2023-05-12T07:16:52.514Z,101903.94
2023-05-12T07:19:20.173Z,101898.66
2023-05-12T07:21:47.958Z,101895.66
2023-05-12T07:24:15.060Z,101899.09
2023-05-12T07:26:41.788Z,101899.75
2023-05-12T07:29:12.895Z,101906.34
2023-05-12T07:31:41.122Z,101903.03
2023-05-12T07:34:08.354Z,101897.38
2023-05-12T07:36:35.051Z,101892.81
2023-05-12T07:39:01.821Z,101899.56
2023-05-12T07:41:28.468Z,101890.94
2023-05-12T07:43:56.234Z,101905.09
2023-05-12T07:46:23.901Z,101892.59
2023-05-12T07:48:50.764Z,101899.03
2023-05-12T07:51:18.216Z,101902.84
2023-05-12T07:53:47.327Z,101908.09
2023-05-12T07:56:15.495Z,101901.22
2023-05-12T07:58:45.320Z,101901.56
2023-05-12T08:01:13.501Z,101909.88
2023-05-12T08:03:41.188Z,101903.75
2023-05-12T08:06:07.845Z,101898.75
2023-05-12T08:08:36.534Z,101892.59
2023-05-12T08:11:04.207Z,101893.66
2023-05-12T08:13:32.004Z,101895.34
2023-05-12T08:16:07.794Z,101893.72
2023-05-12T08:18:34.586Z,101898.22
2023-05-12T08:21:01.406Z,101902.56
2023-05-12T08:23:28.039Z,101892.88
2023-05-12T08:25:54.876Z,101889.25
2023-05-12T08:28:22.319Z,101892.75
2023-05-12T08:30:49.365Z,101897.59
2023-05-12T08:33:18.693Z,101901.16
2023-05-12T08:35:46.541Z,101895.38
2023-05-12T08:38:15.211Z,101902.56
2023-05-12T08:41:04.315Z,101894.78
2023-05-12T08:43:41.141Z,101906.94
2023-05-12T08:46:08.469Z,101891.03
2023-05-12T08:48:38.228Z,101899.94
2023-05-12T08:51:11.874Z,101898.41
2023-05-12T08:53:40.326Z,101901.22
2023-05-12T08:58:42.126Z,101901.56
2023-05-12T09:01:12.263Z,101898.19
2023-05-12T09:03:39.303Z,101897.34
2023-05-12T09:06:06.919Z,101902.00
2023-05-12T09:08:36.806Z,101904.84
2023-05-12T09:11:04.592Z,101900.16
2023-05-12T09:13:49.785Z,101909.59
2023-05-12T09:16:22.141Z,101907.38
2023-05-12T09:18:59.391Z,101909.50
2023-05-12T09:21:27.341Z,101900.25
2023-05-12T09:23:54.853Z,101910.97
2023-05-12T09:26:22.851Z,101911.72
2023-05-12T09:28:51.007Z,101906.44
2023-05-12T09:31:19.191Z,101897.41
2023-05-12T09:33:46.043Z,101901.84
2023-05-12T09:36:26.071Z,101907.66
2023-05-12T09:39:07.104Z,101880.75
2023-05-12T09:41:43.281Z,101902.59
2023-05-12T09:44:11.069Z,101896.19
2023-05-12T09:46:39.865Z,101905.44
2023-05-12T09:49:06.563Z,101894.28
2023-05-12T09:51:33.372Z,101898.72
2023-05-12T09:54:00.928Z,101899.56
2023-05-12T09:56:29.714Z,101894.84
2023-05-12T09:58:57.295Z,101905.59
2023-05-12T10:01:25.043Z,101904.19
2023-05-12T10:03:54.827Z,101897.66
2023-05-12T10:06:31.332Z,101891.81
2023-05-12T10:09:16.056Z,101888.44
2023-05-12T10:11:43.244Z,101889.41
2023-05-12T10:14:11.286Z,101891.44
2023-05-12T10:16:39.012Z,101890.84
2023-05-12T10:19:06.180Z,101891.84
2023-05-12T10:21:33.263Z,101893.75
2023-05-12T10:26:45.687Z,101886.81
2023-05-12T10:29:13.654Z,101898.25
2023-05-12T10:31:40.800Z,101852.47
2023-05-12T10:34:07.532Z,101897.09
2023-05-12T10:36:49.338Z,101887.69
2023-05-12T10:39:16.584Z,101891.53
2023-05-12T10:41:43.472Z,101891.03
2023-05-12T10:44:10.991Z,101889.88
2023-05-12T10:46:38.091Z,101881.88
2023-05-12T10:49:10.192Z,101880.19
2023-05-12T10:51:43.172Z,101885.91
2023-05-12T10:54:11.748Z,101875.06
2023-05-12T10:56:38.635Z,101868.56
2023-05-12T10:59:20.656Z,101866.94
2023-05-12T11:02:06.991Z,101868.06
2023-05-12T11:04:53.239Z,101868.97
2023-05-12T11:07:24.479Z,101875.00
2023-05-12T11:09:58.627Z,101878.00
2023-05-12T11:12:28.331Z,101872.94
2023-05-12T11:14:55.464Z,101877.38
2023-05-12T11:17:23.313Z,101873.94
2023-05-12T11:19:51.058Z,101876.00
2023-05-12T11:22:22.524Z,101871.63
2023-05-12T11:24:50.633Z,101867.13
2023-05-12T11:27:20.558Z,101860.53
2023-05-12T11:29:59.137Z,101869.28
2023-05-12T11:32:26.202Z,101873.09
2023-05-12T11:34:53.155Z,101871.16
2023-05-12T11:37:21.293Z,101864.09
2023-05-12T11:39:48.445Z,101865.84
2023-05-12T11:42:17.765Z,101865.72
2023-05-12T11:44:48.444Z,101869.56
2023-05-12T11:47:16.872Z,101869.84
2023-05-12T11:49:52.405Z,101868.44
2023-05-12T11:52:21.196Z,101863.06
2023-05-12T11:54:57.920Z,101859.56
2023-05-12T11:57:31.879Z,101873.63
2023-05-12T12:00:09.950Z,101881.06
2023-05-12T12:02:38.733Z,101876.13
2023-05-12T12:05:16.657Z,101873.03
2023-05-12T12:07:43.198Z,101878.09
2023-05-12T12:10:18.399Z,101872.47
2023-05-12T12:12:46.014Z,101873.63
2023-05-12T12:15:13.197Z,101873.28
2023-05-12T12:17:40.720Z,101881.09
2023-05-12T12:20:08.285Z,101879.13
2023-05-12T12:22:35.405Z,101876.94
2023-05-12T12:25:02.689Z,101879.41
2023-05-12T12:27:29.640Z,101871.00
2023-05-12T12:29:56.301Z,101882.75
2023-05-12T12:32:23.099Z,101884.22
2023-05-12T12:34:49.781Z,101886.97
2023-05-12T12:37:17.210Z,101889.00
2023-05-12T12:39:43.938Z,101879.06
2023-05-12T12:42:10.552Z,101883.03
2023-05-12T12:44:37.184Z,101884.97
2023-05-12T12:47:05.130Z,101894.06
2023-05-12T12:49:31.832Z,101884.53
2023-05-12T12:51:58.533Z,101873.91
2023-05-12T12:54:27.467Z,101883.06
2023-05-12T12:56:55.858Z,101883.66
2023-05-12T12:59:23.356Z,101876.69
2023-05-12T13:01:50.457Z,101865.50
2023-05-12T13:04:22.181Z,101874.09
2023-05-12T13:06:49.062Z,101878.72
2023-05-12T13:09:16.963Z,101873.75
2023-05-12T13:11:45.047Z,101879.06
2023-05-12T13:14:11.709Z,101874.84
2023-05-12T13:16:38.416Z,101881.59
2023-05-12T13:19:05.133Z,101883.13
2023-05-12T13:21:32.442Z,101882.72
2023-05-12T13:23:59.110Z,101881.00
2023-05-12T13:26:25.772Z,101882.94
2023-05-12T13:28:52.376Z,101881.59
2023-05-12T13:31:19.084Z,101871.91
2023-05-12T13:33:45.698Z,101882.31
2023-05-12T13:36:12.389Z,101879.94
2023-05-12T13:38:39.561Z,101876.03
2023-05-12T13:41:06.254Z,101875.72
2023-05-12T13:43:35.514Z,101875.25
2023-05-12T13:46:03.207Z,101868.59
2023-05-12T13:48:29.779Z,101872.03
2023-05-12T13:50:56.441Z,101862.66
2023-05-12T13:53:23.037Z,101875.31
2023-05-12T13:55:49.710Z,101858.16
2023-05-12T13:58:17.814Z,101866.56
2023-05-12T14:00:44.584Z,101868.38
2023-05-12T14:03:11.308Z,101868.16
2023-05-12T14:05:38.085Z,101860.13
2023-05-12T14:08:05.057Z,101864.16
2023-05-12T14:10:33.380Z,101870.13
2023-05-12T14:13:00.253Z,101865.75
2023-05-12T14:15:44.254Z,101863.56
2023-05-12T14:18:14.967Z,101866.25
2023-05-12T14:20:43.977Z,101875.41
2023-05-12T14:23:10.769Z,101858.34
2023-05-12T14:25:37.720Z,101868.19
2023-05-12T14:28:04.572Z,101869.81
2023-05-12T14:30:31.348Z,101856.94
2023-05-12T14:32:58.391Z,101863.16
2023-05-12T14:35:27.788Z,101862.09
2023-05-12T14:37:55.566Z,101869.88
2023-05-12T14:40:23.479Z,101863.22
2023-05-12T14:42:50.319Z,101852.72
2023-05-12T14:45:17.217Z,101857.75
2023-05-12T14:47:44.733Z,101846.97
2023-05-12T14:50:12.596Z,101863.34
2023-05-12T14:52:39.909Z,101869.97
2023-05-12T14:55:11.612Z,101858.88
2023-05-12T14:57:39.486Z,101867.72
2023-05-12T15:00:13.588Z,101857.75
2023-05-12T15:02:41.720Z,101864.41
2023-05-12T15:05:10.634Z,101871.34
2023-05-12T15:07:41.059Z,101864.72
2023-05-12T15:10:08.342Z,101863.81
2023-05-12T15:12:35.318Z,101864.44
2023-05-12T15:15:05.222Z,101859.97
2023-05-12T15:17:34.344Z,101858.63
2023-05-12T15:20:01.077Z,101872.47
2023-05-12T15:22:31.390Z,101865.78
2023-05-12T15:24:58.983Z,101869.94
2023-05-12T15:27:26.485Z,101875.44
2023-05-12T15:29:54.024Z,101868.84
2023-05-12T15:32:20.866Z,101878.47
2023-05-12T15:34:47.625Z,101866.88
2023-05-12T15:37:14.360Z,101863.78
2023-05-12T15:39:41.137Z,101871.78
2023-05-12T15:42:08.012Z,101866.59
2023-05-12T15:44:35.448Z,101863.66
2023-05-12T15:47:02.190Z,101864.53
2023-05-12T15:49:36.776Z,101869.03
2023-05-12T15:52:03.963Z,101863.72
2023-05-12T15:54:31.056Z,101866.19
2023-05-12T15:56:57.707Z,101866.47
2023-05-12T15:59:24.414Z,101859.19
2023-05-12T16:02:03.781Z,101872.25
2023-05-12T16:04:30.712Z,101869.91
2023-05-12T16:06:58.205Z,101856.84
2023-05-12T16:09:25.116Z,101862.63
2023-05-12T16:11:52.103Z,101853.06
2023-05-12T16:14:18.827Z,101864.88
2023-05-12T16:16:49.484Z,101862.53
2023-05-12T16:19:17.047Z,101870.84
2023-05-12T16:21:44.709Z,101862.59
2023-05-12T16:24:12.330Z,101871.75
2023-05-12T16:26:39.169Z,101868.22
2023-05-12T16:29:06.806Z,101864.31
2023-05-12T16:31:33.612Z,101862.16
2023-05-12T16:34:05.841Z,101860.22
2023-05-12T16:36:33.882Z,101852.31
2023-05-12T16:39:00.778Z,101864.75
2023-05-12T16:41:28.860Z,101864.56
2023-05-12T16:43:55.658Z,101866.69
2023-05-12T16:46:24.632Z,101876.91
2023-05-12T16:48:51.455Z,101874.56
2023-05-12T16:51:18.348Z,101844.06
2023-05-12T16:53:45.144Z,101875.72
2023-05-12T16:56:12.114Z,101882.25
2023-05-12T16:58:38.902Z,101885.28
2023-05-12T17:01:05.738Z,101880.59
2023-05-12T17:03:33.227Z,101876.50
2023-05-12T17:06:00.279Z,101884.59
2023-05-12T17:08:27.083Z,101878.09
2023-05-12T17:10:54.163Z,101875.50
2023-05-12T17:13:21.952Z,101883.00
2023-05-12T17:15:48.675Z,101889.22
2023-05-12T17:18:15.598Z,101880.06
2023-05-12T17:20:42.307Z,101886.94
2023-05-12T17:23:12.806Z,101884.75
2023-05-12T17:25:40.159Z,101893.41
2023-05-12T17:28:07.255Z,101896.94
2023-05-12T17:30:37.290Z,101893.75
2023-05-12T17:33:07.645Z,101906.56
2023-05-12T17:35:34.902Z,101913.13
2023-05-12T17:38:02.161Z,101912.41
2023-05-12T17:40:30.271Z,101916.59
2023-05-12T17:42:57.269Z,101909.09
2023-05-12T17:45:25.058Z,101904.97
2023-05-12T17:47:51.935Z,101916.06
2023-05-12T17:50:18.870Z,101923.50
2023-05-12T17:52:45.540Z,101922.38
2023-05-12T17:55:12.697Z,101906.81
2023-05-12T17:57:44.718Z,101933.22
2023-05-12T18:00:15.733Z,101938.66
2023-05-12T18:02:42.600Z,101936.22
2023-05-12T18:05:10.085Z,101941.97
2023-05-12T18:07:37.109Z,101956.81
2023-05-12T18:10:11.200Z,101951.81
2023-05-12T18:12:38.796Z,101946.44
2023-05-12T18:15:06.503Z,101953.72
2023-05-12T18:17:33.382Z,101959.44
2023-05-12T18:20:00.303Z,101957.50
2023-05-12T18:22:28.137Z,101959.50
2023-05-12T18:24:55.087Z,101956.59
2023-05-12T18:27:21.787Z,101968.72
2023-05-12T18:29:48.469Z,101970.16
2023-05-12T18:32:15.165Z,101968.63
2023-05-12T18:34:44.110Z,101980.16
2023-05-12T18:37:14.396Z,101978.03
2023-05-12T18:39:42.706Z,101989.50
2023-05-12T18:42:11.279Z,101981.94
2023-05-12T18:44:40.670Z,101989.63
2023-05-12T18:47:08.644Z,101998.63
2023-05-12T18:49:37.541Z,102000.88
2023-05-12T18:52:05.408Z,101999.16
2023-05-12T18:54:32.082Z,102002.00
2023-05-12T18:56:58.674Z,102007.38
2023-05-12T18:59:25.373Z,102011.66
2023-05-12T19:01:52.042Z,102013.16
2023-05-12T19:04:20.621Z,101998.75
2023-05-12T19:06:47.483Z,102008.00
2023-05-12T19:09:14.267Z,102013.50
2023-05-12T19:11:41.352Z,102011.22
2023-05-12T19:14:08.892Z,102011.44
2023-05-12T19:16:36.464Z,102017.53
2023-05-12T19:19:03.333Z,102016.47
2023-05-12T19:21:31.293Z,102016.28
2023-05-12T19:23:58.014Z,102028.22
2023-05-12T19:26:24.568Z,102026.53
2023-05-12T19:28:51.126Z,102036.13
2023-05-12T19:31:17.897Z,102036.13
2023-05-12T19:33:44.611Z,102035.28
2023-05-12T19:36:11.679Z,102031.47
2023-05-12T19:38:40.064Z,102040.03
2023-05-12T19:41:06.814Z,102041.44
2023-05-12T19:43:33.570Z,102036.41
2023-05-12T19:46:00.543Z,102031.72
2023-05-12T19:48:27.416Z,102046.13
2023-05-12T19:50:54.667Z,102050.13
2023-05-12T19:53:22.141Z,102043.19
2023-05-12T19:55:48.777Z,102049.63
2023-05-12T19:58:15.458Z,102044.53
2023-05-12T20:00:42.105Z,102054.97
2023-05-12T20:03:08.942Z,102056.56
2023-05-12T20:05:37.412Z,102049.25
2023-05-12T20:08:04.398Z,102062.22
2023-05-12T20:10:31.051Z,102058.72
2023-05-12T20:12:57.792Z,102069.56
2023-05-12T20:15:24.521Z,102062.50
2023-05-12T20:17:51.409Z,102066.97
2023-05-12T20:20:18.105Z,102068.75
2023-05-12T20:22:44.903Z,102069.91
2023-05-12T20:25:15.974Z,102068.34
2023-05-12T20:27:43.227Z,102074.28
2023-05-12T20:30:12.122Z,102063.72
2023-05-12T20:32:38.883Z,102061.84
2023-05-12T20:35:05.837Z,102076.09
2023-05-12T20:37:33.310Z,102035.09
2023-05-12T20:39:59.998Z,102062.06
2023-05-12T20:42:26.704Z,102062.25
2023-05-12T20:44:55.636Z,102065.44
2023-05-12T20:47:22.392Z,102071.63
2023-05-12T20:49:54.253Z,102064.88
2023-05-12T20:52:20.883Z,102063.16
2023-05-12T20:54:47.573Z,102064.66
2023-05-12T20:57:15.290Z,102066.63
2023-05-12T20:59:41.959Z,102065.84
2023-05-12T21:02:08.653Z,102051.34
2023-05-12T21:04:35.381Z,102060.69
2023-05-12T21:07:01.962Z,102061.41
2023-05-12T21:09:28.639Z,102061.69
2023-05-12T21:11:55.238Z,102060.06
2023-05-12T21:14:22.273Z,102062.97
2023-05-12T21:16:48.930Z,102051.69
2023-05-12T21:19:15.548Z,102063.03
2023-05-12T21:21:42.314Z,102065.59
2023-05-12T21:24:08.924Z,102068.88
2023-05-12T21:26:35.563Z,102060.25
2023-05-12T21:29:03.486Z,102054.22
2023-05-12T21:31:30.663Z,102070.50
2023-05-12T21:33:57.336Z,102063.75
2023-05-12T21:36:23.955Z,102068.38
2023-05-12T21:38:50.562Z,102066.19
2023-05-12T21:41:17.152Z,102079.75
2023-05-12T21:43:43.768Z,102066.25
2023-05-12T21:46:10.444Z,102068.66
2023-05-12T21:48:36.991Z,102075.13
2023-05-12T21:51:04.034Z,102074.16
2023-05-12T21:53:30.810Z,102074.69
2023-05-12T21:55:57.453Z,102078.09
2023-05-12T21:58:24.115Z,102077.06
2023-05-12T22:00:51.439Z,102076.41
2023-05-12T22:03:20.427Z,102069.94
2023-05-12T22:05:47.529Z,102070.91
2023-05-12T22:08:14.800Z,102045.97
2023-05-12T22:10:41.395Z,102078.53
2023-05-12T22:13:08.365Z,102074.13
2023-05-12T22:15:35.251Z,102076.13
2023-05-12T22:18:03.178Z,102078.28
2023-05-12T22:20:29.870Z,102070.00
2023-05-12T22:22:56.484Z,102071.19
2023-05-12T22:25:23.348Z,102076.69
2023-05-12T22:27:49.926Z,102076.19
2023-05-12T22:30:18.399Z,102081.97
2023-05-12T22:32:45.328Z,102044.88
2023-05-12T22:35:12.056Z,102073.59
2023-05-12T22:37:38.705Z,102080.72
2023-05-12T22:40:05.891Z,102071.66
2023-05-12T22:42:32.628Z,102080.47
2023-05-12T22:45:00.818Z,102086.88
2023-05-12T22:47:27.542Z,102082.66
2023-05-12T22:49:54.199Z,102081.31
2023-05-12T22:52:21.416Z,102084.53
2023-05-12T22:54:51.286Z,102086.34
2023-05-12T22:57:17.900Z,102080.97
2023-05-12T22:59:44.466Z,102089.25
2023-05-12T23:02:11.123Z,102064.78
2023-05-12T23:04:37.835Z,102090.78
2023-05-12T23:07:05.867Z,102083.19
2023-05-12T23:09:33.506Z,102082.88
2023-05-12T23:12:00.398Z,102086.91
2023-05-12T23:14:26.954Z,102083.53
2023-05-12T23:16:53.669Z,102084.19
2023-05-12T23:19:20.304Z,102087.06
2023-05-12T23:21:46.913Z,102087.91
2023-05-12T23:24:13.546Z,102083.53
2023-05-12T23:26:40.623Z,102080.16
2023-05-12T23:29:07.381Z,102085.22
2023-05-12T23:31:37.355Z,102079.47
2023-05-12T23:34:04.246Z,102087.56
2023-05-12T23:36:31.425Z,102088.06
2023-05-12T23:38:57.950Z,102087.16
2023-05-12T23:41:25.688Z,102087.47
2023-05-12T23:43:52.354Z,102092.19
2023-05-12T23:46:19.038Z,102085.94
2023-05-12T23:48:45.631Z,102083.09
2023-05-12T23:51:12.227Z,102086.44
2023-05-12T23:53:38.826Z,102081.72
2023-05-12T23:56:05.795Z,102082.91
2023-05-12T23:58:32.542Z,102049.53
